sensor_id;sensor_type;location;lat;lon;timestamp;P1;durP1;ratioP1;P2;durP2;ratioP2
53411;SDS011;39307;52.870;13.660;2022-11-15T00:00:29;61.60;;;44.53;;
53411;SDS011;39307;52.870;13.660;2022-11-15T00:02:55;61.40;;;44.47;;
53411;SDS011;39307;52.870;13.660;2022-11-15T00:05:21;59.38;;;44.05;;
53411;SDS011;39307;52.870;13.660;2022-11-15T00:07:47;58.50;;;42.73;;
53411;SDS011;39307;52.870;13.660;2022-11-15T00:10:14;59.88;;;43.80;;
53411;SDS011;39307;52.870;13.660;2022-11-15T00:12:40;61.58;;;44.80;;
53411;SDS011;39307;52.870;13.660;2022-11-15T00:15:06;60.47;;;44.05;;
53411;SDS011;39307;52.870;13.660;2022-11-15T00:17:33;57.60;;;42.75;;
53411;SDS011;39307;52.870;13.660;2022-11-15T00:19:59;58.38;;;43.45;;
53411;SDS011;39307;52.870;13.660;2022-11-15T00:22:30;58.27;;;43.10;;
53411;SDS011;39307;52.870;13.660;2022-11-15T00:24:58;57.28;;;42.90;;
53411;SDS011;39307;52.870;13.660;2022-11-15T00:27:24;58.15;;;43.08;;
53411;SDS011;39307;52.870;13.660;2022-11-15T00:29:51;56.90;;;42.22;;
53411;SDS011;39307;52.870;13.660;2022-11-15T00:32:17;58.55;;;43.35;;
53411;SDS011;39307;52.870;13.660;2022-11-15T00:34:43;55.35;;;42.30;;
53411;SDS011;39307;52.870;13.660;2022-11-15T00:37:09;56.28;;;42.20;;
53411;SDS011;39307;52.870;13.660;2022-11-15T00:39:35;58.03;;;43.88;;
53411;SDS011;39307;52.870;13.660;2022-11-15T00:42:01;55.22;;;41.95;;
53411;SDS011;39307;52.870;13.660;2022-11-15T00:44:28;57.40;;;43.22;;
53411;SDS011;39307;52.870;13.660;2022-11-15T00:46:54;55.67;;;42.60;;
53411;SDS011;39307;52.870;13.660;2022-11-15T00:49:20;57.08;;;43.05;;
53411;SDS011;39307;52.870;13.660;2022-11-15T00:51:46;56.85;;;41.75;;
53411;SDS011;39307;52.870;13.660;2022-11-15T00:54:12;55.95;;;41.50;;
53411;SDS011;39307;52.870;13.660;2022-11-15T00:56:39;57.10;;;43.13;;
53411;SDS011;39307;52.870;13.660;2022-11-15T00:59:05;58.75;;;43.35;;
53411;SDS011;39307;52.870;13.660;2022-11-15T01:01:31;56.10;;;43.10;;
53411;SDS011;39307;52.870;13.660;2022-11-15T01:03:57;58.58;;;43.20;;
53411;SDS011;39307;52.870;13.660;2022-11-15T01:06:24;56.00;;;42.45;;
53411;SDS011;39307;52.870;13.660;2022-11-15T01:08:50;58.20;;;44.00;;
53411;SDS011;39307;52.870;13.660;2022-11-15T01:11:16;58.70;;;42.97;;
53411;SDS011;39307;52.870;13.660;2022-11-15T01:13:42;58.30;;;43.87;;
53411;SDS011;39307;52.870;13.660;2022-11-15T01:16:12;60.55;;;44.13;;
53411;SDS011;39307;52.870;13.660;2022-11-15T01:18:40;58.97;;;43.67;;
53411;SDS011;39307;52.870;13.660;2022-11-15T01:21:07;56.97;;;42.63;;
53411;SDS011;39307;52.870;13.660;2022-11-15T01:23:35;57.50;;;43.95;;
53411;SDS011;39307;52.870;13.660;2022-11-15T01:26:02;56.42;;;42.85;;
53411;SDS011;39307;52.870;13.660;2022-11-15T01:28:33;55.38;;;42.45;;
53411;SDS011;39307;52.870;13.660;2022-11-15T01:31:02;53.78;;;41.15;;
53411;SDS011;39307;52.870;13.660;2022-11-15T01:33:29;56.53;;;43.03;;
53411;SDS011;39307;52.870;13.660;2022-11-15T01:35:56;52.75;;;40.42;;
53411;SDS011;39307;52.870;13.660;2022-11-15T01:38:22;54.00;;;42.15;;
53411;SDS011;39307;52.870;13.660;2022-11-15T01:40:48;52.50;;;40.38;;
53411;SDS011;39307;52.870;13.660;2022-11-15T01:43:20;53.20;;;41.55;;
53411;SDS011;39307;52.870;13.660;2022-11-15T01:45:53;54.42;;;41.83;;
53411;SDS011;39307;52.870;13.660;2022-11-15T01:48:30;51.72;;;40.97;;
53411;SDS011;39307;52.870;13.660;2022-11-15T01:51:07;51.47;;;41.00;;
53411;SDS011;39307;52.870;13.660;2022-11-15T01:53:38;50.88;;;39.85;;
53411;SDS011;39307;52.870;13.660;2022-11-15T01:56:09;51.53;;;40.10;;
53411;SDS011;39307;52.870;13.660;2022-11-15T01:58:38;58.60;;;44.67;;
53411;SDS011;39307;52.870;13.660;2022-11-15T02:01:06;55.08;;;42.20;;
53411;SDS011;39307;52.870;13.660;2022-11-15T02:03:36;53.70;;;41.42;;
53411;SDS011;39307;52.870;13.660;2022-11-15T02:06:14;52.45;;;41.05;;
53411;SDS011;39307;52.870;13.660;2022-11-15T02:08:40;52.38;;;39.60;;
53411;SDS011;39307;52.870;13.660;2022-11-15T02:11:08;52.92;;;41.50;;
53411;SDS011;39307;52.870;13.660;2022-11-15T02:13:34;50.13;;;39.33;;
53411;SDS011;39307;52.870;13.660;2022-11-15T02:16:08;50.75;;;40.15;;
53411;SDS011;39307;52.870;13.660;2022-11-15T02:21:52;48.35;;;38.60;;
53411;SDS011;39307;52.870;13.660;2022-11-15T02:41:04;46.60;;;36.97;;
53411;SDS011;39307;52.870;13.660;2022-11-15T02:43:48;45.97;;;36.92;;
53411;SDS011;39307;52.870;13.660;2022-11-15T02:46:24;45.55;;;36.75;;
53411;SDS011;39307;52.870;13.660;2022-11-15T02:48:52;48.07;;;38.57;;
53411;SDS011;39307;52.870;13.660;2022-11-15T02:51:18;46.75;;;37.95;;
53411;SDS011;39307;52.870;13.660;2022-11-15T02:53:46;52.65;;;38.03;;
53411;SDS011;39307;52.870;13.660;2022-11-15T02:56:12;45.97;;;36.42;;
53411;SDS011;39307;52.870;13.660;2022-11-15T03:01:56;47.78;;;38.13;;
53411;SDS011;39307;52.870;13.660;2022-11-15T03:04:43;48.05;;;38.97;;
53411;SDS011;39307;52.870;13.660;2022-11-15T03:07:16;46.85;;;37.60;;
53411;SDS011;39307;52.870;13.660;2022-11-15T03:10:10;46.40;;;37.30;;
53411;SDS011;39307;52.870;13.660;2022-11-15T03:12:55;51.28;;;37.65;;
53411;SDS011;39307;52.870;13.660;2022-11-15T03:15:32;46.97;;;36.03;;
53411;SDS011;39307;52.870;13.660;2022-11-15T03:18:10;49.03;;;38.80;;
53411;SDS011;39307;52.870;13.660;2022-11-15T03:20:47;47.45;;;36.85;;
53411;SDS011;39307;52.870;13.660;2022-11-15T03:23:15;47.15;;;36.00;;
53411;SDS011;39307;52.870;13.660;2022-11-15T03:25:46;43.50;;;35.47;;
53411;SDS011;39307;52.870;13.660;2022-11-15T03:28:22;45.92;;;36.33;;
53411;SDS011;39307;52.870;13.660;2022-11-15T03:30:54;42.50;;;34.85;;
53411;SDS011;39307;52.870;13.660;2022-11-15T03:33:22;44.08;;;35.38;;
53411;SDS011;39307;52.870;13.660;2022-11-15T03:35:48;44.22;;;35.35;;
53411;SDS011;39307;52.870;13.660;2022-11-15T03:38:25;43.58;;;34.95;;
53411;SDS011;39307;52.870;13.660;2022-11-15T03:43:29;44.05;;;35.25;;
53411;SDS011;39307;52.870;13.660;2022-11-15T03:49:25;43.50;;;34.83;;
53411;SDS011;39307;52.870;13.660;2022-11-15T03:51:56;42.72;;;34.97;;
53411;SDS011;39307;52.870;13.660;2022-11-15T03:54:24;40.72;;;33.75;;
53411;SDS011;39307;52.870;13.660;2022-11-15T03:56:50;40.45;;;33.97;;
53411;SDS011;39307;52.870;13.660;2022-11-15T03:59:16;42.65;;;34.08;;
53411;SDS011;39307;52.870;13.660;2022-11-15T04:01:43;42.55;;;34.50;;
53411;SDS011;39307;52.870;13.660;2022-11-15T04:04:09;43.63;;;35.03;;
53411;SDS011;39307;52.870;13.660;2022-11-15T04:06:35;42.10;;;34.30;;
53411;SDS011;39307;52.870;13.660;2022-11-15T04:09:02;41.87;;;33.37;;
53411;SDS011;39307;52.870;13.660;2022-11-15T04:11:28;41.70;;;34.00;;
53411;SDS011;39307;52.870;13.660;2022-11-15T04:13:54;39.80;;;32.50;;
53411;SDS011;39307;52.870;13.660;2022-11-15T04:16:20;40.45;;;32.88;;
53411;SDS011;39307;52.870;13.660;2022-11-15T04:18:46;40.97;;;32.93;;
53411;SDS011;39307;52.870;13.660;2022-11-15T04:21:13;39.35;;;32.40;;
53411;SDS011;39307;52.870;13.660;2022-11-15T04:23:39;38.75;;;32.38;;
53411;SDS011;39307;52.870;13.660;2022-11-15T04:26:06;39.50;;;32.17;;
53411;SDS011;39307;52.870;13.660;2022-11-15T04:28:43;40.25;;;32.38;;
53411;SDS011;39307;52.870;13.660;2022-11-15T04:31:10;41.10;;;33.43;;
53411;SDS011;39307;52.870;13.660;2022-11-15T04:33:36;40.33;;;32.55;;
53411;SDS011;39307;52.870;13.660;2022-11-15T04:36:02;41.17;;;33.25;;
53411;SDS011;39307;52.870;13.660;2022-11-15T04:38:28;39.97;;;32.85;;
53411;SDS011;39307;52.870;13.660;2022-11-15T04:40:55;41.50;;;33.90;;
53411;SDS011;39307;52.870;13.660;2022-11-15T04:43:21;42.97;;;33.00;;
53411;SDS011;39307;52.870;13.660;2022-11-15T04:45:47;42.00;;;32.97;;
53411;SDS011;39307;52.870;13.660;2022-11-15T04:48:13;41.15;;;33.13;;
53411;SDS011;39307;52.870;13.660;2022-11-15T04:50:40;39.63;;;32.70;;
53411;SDS011;39307;52.870;13.660;2022-11-15T04:53:06;38.67;;;31.80;;
53411;SDS011;39307;52.870;13.660;2022-11-15T04:55:32;39.80;;;32.97;;
53411;SDS011;39307;52.870;13.660;2022-11-15T04:57:58;40.40;;;31.95;;
53411;SDS011;39307;52.870;13.660;2022-11-15T05:00:26;38.08;;;31.67;;
53411;SDS011;39307;52.870;13.660;2022-11-15T05:02:53;38.92;;;33.10;;
53411;SDS011;39307;52.870;13.660;2022-11-15T05:05:19;39.17;;;31.33;;
53411;SDS011;39307;52.870;13.660;2022-11-15T05:07:46;38.45;;;31.02;;
53411;SDS011;39307;52.870;13.660;2022-11-15T05:10:12;37.88;;;31.52;;
53411;SDS011;39307;52.870;13.660;2022-11-15T05:12:38;45.05;;;37.85;;
53411;SDS011;39307;52.870;13.660;2022-11-15T05:15:04;41.15;;;33.72;;
53411;SDS011;39307;52.870;13.660;2022-11-15T05:17:31;38.33;;;33.10;;
53411;SDS011;39307;52.870;13.660;2022-11-15T05:19:57;37.65;;;31.40;;
53411;SDS011;39307;52.870;13.660;2022-11-15T05:22:23;38.27;;;31.43;;
53411;SDS011;39307;52.870;13.660;2022-11-15T05:24:50;40.92;;;35.03;;
53411;SDS011;39307;52.870;13.660;2022-11-15T05:27:16;37.53;;;31.45;;
53411;SDS011;39307;52.870;13.660;2022-11-15T05:29:42;37.75;;;31.45;;
53411;SDS011;39307;52.870;13.660;2022-11-15T05:32:08;35.38;;;29.70;;
53411;SDS011;39307;52.870;13.660;2022-11-15T05:34:36;46.95;;;41.80;;
53411;SDS011;39307;52.870;13.660;2022-11-15T05:37:03;39.40;;;32.07;;
53411;SDS011;39307;52.870;13.660;2022-11-15T05:39:29;34.67;;;30.20;;
53411;SDS011;39307;52.870;13.660;2022-11-15T05:41:57;33.67;;;28.77;;
53411;SDS011;39307;52.870;13.660;2022-11-15T05:44:31;35.25;;;29.42;;
53411;SDS011;39307;52.870;13.660;2022-11-15T05:46:59;36.03;;;29.42;;
53411;SDS011;39307;52.870;13.660;2022-11-15T05:49:27;34.92;;;29.02;;
53411;SDS011;39307;52.870;13.660;2022-11-15T05:51:59;35.07;;;28.57;;
53411;SDS011;39307;52.870;13.660;2022-11-15T05:54:29;35.03;;;29.63;;
53411;SDS011;39307;52.870;13.660;2022-11-15T05:56:57;35.75;;;30.00;;
53411;SDS011;39307;52.870;13.660;2022-11-15T05:59:23;34.22;;;29.50;;
53411;SDS011;39307;52.870;13.660;2022-11-15T06:01:49;35.90;;;29.53;;
53411;SDS011;39307;52.870;13.660;2022-11-15T06:04:16;35.45;;;29.60;;
53411;SDS011;39307;52.870;13.660;2022-11-15T06:06:42;34.83;;;28.80;;
53411;SDS011;39307;52.870;13.660;2022-11-15T06:09:08;34.42;;;28.92;;
53411;SDS011;39307;52.870;13.660;2022-11-15T06:11:34;35.33;;;28.95;;
53411;SDS011;39307;52.870;13.660;2022-11-15T06:14:00;35.22;;;28.85;;
53411;SDS011;39307;52.870;13.660;2022-11-15T06:16:26;32.85;;;27.92;;
53411;SDS011;39307;52.870;13.660;2022-11-15T06:18:53;34.90;;;29.13;;
53411;SDS011;39307;52.870;13.660;2022-11-15T06:21:19;35.45;;;28.83;;
53411;SDS011;39307;52.870;13.660;2022-11-15T06:23:45;34.00;;;29.17;;
53411;SDS011;39307;52.870;13.660;2022-11-15T06:26:11;34.55;;;29.35;;
53411;SDS011;39307;52.870;13.660;2022-11-15T06:28:37;36.63;;;29.67;;
53411;SDS011;39307;52.870;13.660;2022-11-15T06:31:08;34.97;;;29.50;;
53411;SDS011;39307;52.870;13.660;2022-11-15T06:33:35;34.80;;;29.17;;
53411;SDS011;39307;52.870;13.660;2022-11-15T06:36:05;34.63;;;28.48;;
53411;SDS011;39307;52.870;13.660;2022-11-15T06:38:35;34.90;;;28.42;;
53411;SDS011;39307;52.870;13.660;2022-11-15T06:41:05;34.85;;;29.30;;
53411;SDS011;39307;52.870;13.660;2022-11-15T06:43:33;36.05;;;29.55;;
53411;SDS011;39307;52.870;13.660;2022-11-15T06:46:00;34.43;;;28.37;;
53411;SDS011;39307;52.870;13.660;2022-11-15T06:48:27;33.97;;;28.20;;
53411;SDS011;39307;52.870;13.660;2022-11-15T06:50:54;34.42;;;28.20;;
53411;SDS011;39307;52.870;13.660;2022-11-15T06:53:22;35.95;;;29.17;;
53411;SDS011;39307;52.870;13.660;2022-11-15T06:55:48;35.53;;;29.35;;
53411;SDS011;39307;52.870;13.660;2022-11-15T06:58:15;35.17;;;28.83;;
53411;SDS011;39307;52.870;13.660;2022-11-15T07:00:41;34.83;;;28.67;;
53411;SDS011;39307;52.870;13.660;2022-11-15T07:03:08;36.33;;;29.33;;
53411;SDS011;39307;52.870;13.660;2022-11-15T07:05:34;35.22;;;28.65;;
53411;SDS011;39307;52.870;13.660;2022-11-15T07:08:01;36.45;;;31.13;;
53411;SDS011;39307;52.870;13.660;2022-11-15T07:10:28;35.33;;;29.02;;
53411;SDS011;39307;52.870;13.660;2022-11-15T07:12:55;36.75;;;31.38;;
53411;SDS011;39307;52.870;13.660;2022-11-15T07:15:23;35.10;;;28.67;;
53411;SDS011;39307;52.870;13.660;2022-11-15T07:17:51;32.75;;;28.08;;
53411;SDS011;39307;52.870;13.660;2022-11-15T07:20:17;33.47;;;28.05;;
53411;SDS011;39307;52.870;13.660;2022-11-15T07:22:44;36.30;;;28.27;;
53411;SDS011;39307;52.870;13.660;2022-11-15T07:25:10;33.63;;;27.95;;
53411;SDS011;39307;52.870;13.660;2022-11-15T07:27:37;37.80;;;29.95;;
53411;SDS011;39307;52.870;13.660;2022-11-15T07:30:04;34.35;;;28.52;;
53411;SDS011;39307;52.870;13.660;2022-11-15T07:32:30;35.08;;;29.13;;
53411;SDS011;39307;52.870;13.660;2022-11-15T07:34:57;34.45;;;28.88;;
53411;SDS011;39307;52.870;13.660;2022-11-15T07:37:23;36.67;;;29.73;;
53411;SDS011;39307;52.870;13.660;2022-11-15T07:39:50;36.83;;;30.67;;
53411;SDS011;39307;52.870;13.660;2022-11-15T07:42:16;37.15;;;30.48;;
53411;SDS011;39307;52.870;13.660;2022-11-15T07:44:42;35.08;;;28.73;;
53411;SDS011;39307;52.870;13.660;2022-11-15T07:47:09;35.78;;;29.63;;
53411;SDS011;39307;52.870;13.660;2022-11-15T07:49:35;34.72;;;28.35;;
53411;SDS011;39307;52.870;13.660;2022-11-15T07:52:01;35.97;;;29.27;;
53411;SDS011;39307;52.870;13.660;2022-11-15T07:54:28;35.75;;;29.13;;
53411;SDS011;39307;52.870;13.660;2022-11-15T07:56:54;36.77;;;29.50;;
53411;SDS011;39307;52.870;13.660;2022-11-15T07:59:21;35.90;;;30.23;;
53411;SDS011;39307;52.870;13.660;2022-11-15T08:01:47;35.40;;;29.27;;
53411;SDS011;39307;52.870;13.660;2022-11-15T08:04:13;36.30;;;29.45;;
53411;SDS011;39307;52.870;13.660;2022-11-15T08:06:39;35.47;;;29.80;;
53411;SDS011;39307;52.870;13.660;2022-11-15T08:09:05;36.15;;;30.10;;
53411;SDS011;39307;52.870;13.660;2022-11-15T08:11:32;38.33;;;31.17;;
53411;SDS011;39307;52.870;13.660;2022-11-15T08:13:58;34.78;;;29.10;;
53411;SDS011;39307;52.870;13.660;2022-11-15T08:16:24;36.13;;;29.17;;
53411;SDS011;39307;52.870;13.660;2022-11-15T08:18:50;36.28;;;30.15;;
53411;SDS011;39307;52.870;13.660;2022-11-15T08:21:18;37.47;;;30.52;;
53411;SDS011;39307;52.870;13.660;2022-11-15T08:23:45;36.63;;;30.50;;
53411;SDS011;39307;52.870;13.660;2022-11-15T08:26:12;39.28;;;31.27;;
53411;SDS011;39307;52.870;13.660;2022-11-15T08:28:38;38.15;;;32.28;;
53411;SDS011;39307;52.870;13.660;2022-11-15T08:31:04;38.67;;;31.43;;
53411;SDS011;39307;52.870;13.660;2022-11-15T08:33:31;37.90;;;30.58;;
53411;SDS011;39307;52.870;13.660;2022-11-15T08:35:58;38.03;;;30.97;;
53411;SDS011;39307;52.870;13.660;2022-11-15T08:38:25;38.13;;;31.48;;
53411;SDS011;39307;52.870;13.660;2022-11-15T08:40:52;38.63;;;32.17;;
53411;SDS011;39307;52.870;13.660;2022-11-15T08:43:19;38.00;;;30.27;;
53411;SDS011;39307;52.870;13.660;2022-11-15T08:45:46;38.80;;;31.20;;
53411;SDS011;39307;52.870;13.660;2022-11-15T08:48:12;38.53;;;31.55;;
53411;SDS011;39307;52.870;13.660;2022-11-15T08:50:38;38.65;;;31.83;;
53411;SDS011;39307;52.870;13.660;2022-11-15T08:53:05;38.28;;;31.20;;
53411;SDS011;39307;52.870;13.660;2022-11-15T08:55:32;42.03;;;32.20;;
53411;SDS011;39307;52.870;13.660;2022-11-15T08:58:02;39.50;;;31.40;;
53411;SDS011;39307;52.870;13.660;2022-11-15T09:00:29;41.73;;;33.20;;
53411;SDS011;39307;52.870;13.660;2022-11-15T09:02:55;41.95;;;34.20;;
53411;SDS011;39307;52.870;13.660;2022-11-15T09:05:21;43.63;;;34.28;;
53411;SDS011;39307;52.870;13.660;2022-11-15T09:07:48;39.95;;;32.83;;
53411;SDS011;39307;52.870;13.660;2022-11-15T09:10:21;42.22;;;33.70;;
53411;SDS011;39307;52.870;13.660;2022-11-15T09:12:47;43.97;;;34.20;;
53411;SDS011;39307;52.870;13.660;2022-11-15T09:15:14;43.63;;;34.72;;
53411;SDS011;39307;52.870;13.660;2022-11-15T09:17:41;44.63;;;34.67;;
53411;SDS011;39307;52.870;13.660;2022-11-15T09:20:08;43.75;;;34.50;;
53411;SDS011;39307;52.870;13.660;2022-11-15T09:22:34;41.95;;;33.45;;
53411;SDS011;39307;52.870;13.660;2022-11-15T09:25:01;41.87;;;33.23;;
53411;SDS011;39307;52.870;13.660;2022-11-15T09:27:31;44.83;;;34.78;;
53411;SDS011;39307;52.870;13.660;2022-11-15T09:29:58;44.33;;;34.45;;
53411;SDS011;39307;52.870;13.660;2022-11-15T09:32:27;41.83;;;33.17;;
53411;SDS011;39307;52.870;13.660;2022-11-15T09:34:55;43.08;;;33.03;;
53411;SDS011;39307;52.870;13.660;2022-11-15T09:37:21;40.90;;;32.20;;
53411;SDS011;39307;52.870;13.660;2022-11-15T09:39:47;40.67;;;32.92;;
53411;SDS011;39307;52.870;13.660;2022-11-15T09:42:36;41.25;;;33.33;;
53411;SDS011;39307;52.870;13.660;2022-11-15T09:50:45;40.78;;;32.47;;
53411;SDS011;39307;52.870;13.660;2022-11-15T09:54:00;41.60;;;33.20;;
53411;SDS011;39307;52.870;13.660;2022-11-15T09:56:24;41.00;;;32.95;;
53411;SDS011;39307;52.870;13.660;2022-11-15T10:01:47;38.78;;;32.15;;
53411;SDS011;39307;52.870;13.660;2022-11-15T10:04:23;43.30;;;35.03;;
53411;SDS011;39307;52.870;13.660;2022-11-15T10:06:58;42.05;;;33.78;;
53411;SDS011;39307;52.870;13.660;2022-11-15T10:09:36;42.40;;;32.47;;
53411;SDS011;39307;52.870;13.660;2022-11-15T10:12:11;41.30;;;32.40;;
53411;SDS011;39307;52.870;13.660;2022-11-15T10:14:39;39.97;;;33.40;;
53411;SDS011;39307;52.870;13.660;2022-11-15T10:22:48;40.30;;;32.60;;
53411;SDS011;39307;52.870;13.660;2022-11-15T10:25:25;40.35;;;33.22;;
53411;SDS011;39307;52.870;13.660;2022-11-15T10:30:56;41.33;;;33.60;;
53411;SDS011;39307;52.870;13.660;2022-11-15T10:41:14;37.65;;;29.98;;
53411;SDS011;39307;52.870;13.660;2022-11-15T10:43:42;37.35;;;30.08;;
53411;SDS011;39307;52.870;13.660;2022-11-15T10:46:26;35.87;;;29.77;;
53411;SDS011;39307;52.870;13.660;2022-11-15T10:48:52;37.03;;;30.50;;
53411;SDS011;39307;52.870;13.660;2022-11-15T10:51:28;39.53;;;32.03;;
53411;SDS011;39307;52.870;13.660;2022-11-15T10:53:59;36.30;;;29.65;;
53411;SDS011;39307;52.870;13.660;2022-11-15T10:56:26;37.80;;;30.33;;
53411;SDS011;39307;52.870;13.660;2022-11-15T10:58:53;36.67;;;30.83;;
53411;SDS011;39307;52.870;13.660;2022-11-15T11:01:25;37.75;;;30.75;;
53411;SDS011;39307;52.870;13.660;2022-11-15T11:04:05;40.40;;;31.23;;
53411;SDS011;39307;52.870;13.660;2022-11-15T11:06:46;38.05;;;30.63;;
53411;SDS011;39307;52.870;13.660;2022-11-15T11:09:33;37.88;;;29.35;;
53411;SDS011;39307;52.870;13.660;2022-11-15T11:12:02;36.88;;;30.05;;
53411;SDS011;39307;52.870;13.660;2022-11-15T11:14:30;37.72;;;29.98;;
53411;SDS011;39307;52.870;13.660;2022-11-15T11:25:26;37.20;;;29.83;;
53411;SDS011;39307;52.870;13.660;2022-11-15T11:30:45;36.70;;;29.85;;
53411;SDS011;39307;52.870;13.660;2022-11-15T11:33:32;37.58;;;30.25;;
53411;SDS011;39307;52.870;13.660;2022-11-15T11:36:19;37.88;;;30.95;;
53411;SDS011;39307;52.870;13.660;2022-11-15T11:38:58;35.92;;;29.92;;
53411;SDS011;39307;52.870;13.660;2022-11-15T11:44:31;37.28;;;30.52;;
53411;SDS011;39307;52.870;13.660;2022-11-15T11:47:03;35.25;;;29.33;;
53411;SDS011;39307;52.870;13.660;2022-11-15T11:49:56;37.00;;;30.02;;
53411;SDS011;39307;52.870;13.660;2022-11-15T12:00:46;40.58;;;32.33;;
53411;SDS011;39307;52.870;13.660;2022-11-15T12:03:21;40.40;;;33.22;;
53411;SDS011;39307;52.870;13.660;2022-11-15T12:06:20;41.27;;;32.70;;
53411;SDS011;39307;52.870;13.660;2022-11-15T12:14:28;39.27;;;31.83;;
53411;SDS011;39307;52.870;13.660;2022-11-15T12:16:59;41.92;;;31.00;;
53411;SDS011;39307;52.870;13.660;2022-11-15T12:19:26;38.05;;;31.17;;
53411;SDS011;39307;52.870;13.660;2022-11-15T12:22:04;36.17;;;30.20;;
53411;SDS011;39307;52.870;13.660;2022-11-15T12:24:50;34.38;;;28.90;;
53411;SDS011;39307;52.870;13.660;2022-11-15T12:30:08;34.60;;;27.77;;
53411;SDS011;39307;52.870;13.660;2022-11-15T12:32:54;33.23;;;27.23;;
53411;SDS011;39307;52.870;13.660;2022-11-15T12:38:09;34.03;;;26.95;;
53411;SDS011;39307;52.870;13.660;2022-11-15T12:40:37;31.52;;;25.90;;
53411;SDS011;39307;52.870;13.660;2022-11-15T12:43:45;31.75;;;26.88;;
53411;SDS011;39307;52.870;13.660;2022-11-15T12:46:19;32.08;;;26.38;;
53411;SDS011;39307;52.870;13.660;2022-11-15T12:48:49;31.65;;;25.65;;
53411;SDS011;39307;52.870;13.660;2022-11-15T12:51:19;30.83;;;24.58;;
53411;SDS011;39307;52.870;13.660;2022-11-15T12:53:47;31.70;;;25.50;;
53411;SDS011;39307;52.870;13.660;2022-11-15T12:58:44;29.27;;;24.25;;
53411;SDS011;39307;52.870;13.660;2022-11-15T13:06:46;28.25;;;22.67;;
53411;SDS011;39307;52.870;13.660;2022-11-15T13:12:02;27.67;;;21.17;;
53411;SDS011;39307;52.870;13.660;2022-11-15T13:14:38;26.15;;;21.25;;
53411;SDS011;39307;52.870;13.660;2022-11-15T13:19:45;29.27;;;22.33;;
53411;SDS011;39307;52.870;13.660;2022-11-15T13:22:13;28.67;;;21.58;;
53411;SDS011;39307;52.870;13.660;2022-11-15T13:24:40;26.50;;;21.02;;
53411;SDS011;39307;52.870;13.660;2022-11-15T13:27:15;27.23;;;21.90;;
53411;SDS011;39307;52.870;13.660;2022-11-15T13:29:45;27.08;;;21.52;;
53411;SDS011;39307;52.870;13.660;2022-11-15T13:32:14;27.00;;;21.70;;
53411;SDS011;39307;52.870;13.660;2022-11-15T13:34:45;28.30;;;21.95;;
53411;SDS011;39307;52.870;13.660;2022-11-15T13:39:46;28.50;;;22.73;;
53411;SDS011;39307;52.870;13.660;2022-11-15T13:42:16;31.02;;;23.75;;
53411;SDS011;39307;52.870;13.660;2022-11-15T13:44:55;29.33;;;22.55;;
53411;SDS011;39307;52.870;13.660;2022-11-15T13:47:27;29.05;;;22.60;;
53411;SDS011;39307;52.870;13.660;2022-11-15T13:49:56;28.58;;;21.98;;
53411;SDS011;39307;52.870;13.660;2022-11-15T13:52:26;31.23;;;23.55;;
53411;SDS011;39307;52.870;13.660;2022-11-15T13:55:04;28.80;;;22.15;;
53411;SDS011;39307;52.870;13.660;2022-11-15T13:57:42;31.27;;;23.75;;
53411;SDS011;39307;52.870;13.660;2022-11-15T14:03:19;32.40;;;24.08;;
53411;SDS011;39307;52.870;13.660;2022-11-15T14:08:36;30.17;;;22.88;;
53411;SDS011;39307;52.870;13.660;2022-11-15T14:11:14;31.20;;;23.50;;
53411;SDS011;39307;52.870;13.660;2022-11-15T14:13:59;36.22;;;27.15;;
53411;SDS011;39307;52.870;13.660;2022-11-15T14:16:40;33.03;;;24.90;;
53411;SDS011;39307;52.870;13.660;2022-11-15T14:24:39;32.80;;;24.90;;
53411;SDS011;39307;52.870;13.660;2022-11-15T14:27:20;34.15;;;26.23;;
53411;SDS011;39307;52.870;13.660;2022-11-15T14:29:49;34.97;;;27.40;;
53411;SDS011;39307;52.870;13.660;2022-11-15T14:34:54;34.58;;;27.30;;
53411;SDS011;39307;52.870;13.660;2022-11-15T14:37:21;35.72;;;28.85;;
53411;SDS011;39307;52.870;13.660;2022-11-15T14:39:55;34.13;;;28.10;;
53411;SDS011;39307;52.870;13.660;2022-11-15T14:42:21;39.75;;;31.15;;
53411;SDS011;39307;52.870;13.660;2022-11-15T14:44:48;37.75;;;30.73;;
53411;SDS011;39307;52.870;13.660;2022-11-15T14:47:15;38.90;;;30.88;;
53411;SDS011;39307;52.870;13.660;2022-11-15T14:49:41;44.40;;;35.10;;
53411;SDS011;39307;52.870;13.660;2022-11-15T14:54:54;43.00;;;34.05;;
53411;SDS011;39307;52.870;13.660;2022-11-15T14:57:21;50.65;;;38.00;;
53411;SDS011;39307;52.870;13.660;2022-11-15T14:59:48;51.08;;;38.38;;
53411;SDS011;39307;52.870;13.660;2022-11-15T15:02:15;50.15;;;38.05;;
53411;SDS011;39307;52.870;13.660;2022-11-15T15:04:53;51.67;;;38.45;;
53411;SDS011;39307;52.870;13.660;2022-11-15T15:07:19;54.38;;;41.25;;
53411;SDS011;39307;52.870;13.660;2022-11-15T15:09:46;56.08;;;42.20;;
53411;SDS011;39307;52.870;13.660;2022-11-15T15:12:16;53.92;;;40.72;;
53411;SDS011;39307;52.870;13.660;2022-11-15T15:14:45;58.58;;;43.55;;
53411;SDS011;39307;52.870;13.660;2022-11-15T15:17:12;59.07;;;43.40;;
53411;SDS011;39307;52.870;13.660;2022-11-15T15:19:39;57.38;;;43.17;;
53411;SDS011;39307;52.870;13.660;2022-11-15T15:22:05;61.17;;;45.30;;
53411;SDS011;39307;52.870;13.660;2022-11-15T15:24:35;61.90;;;44.95;;
53411;SDS011;39307;52.870;13.660;2022-11-15T15:27:01;64.88;;;45.97;;
53411;SDS011;39307;52.870;13.660;2022-11-15T15:29:27;63.87;;;45.97;;
53411;SDS011;39307;52.870;13.660;2022-11-15T15:31:53;67.15;;;47.83;;
53411;SDS011;39307;52.870;13.660;2022-11-15T15:34:19;63.83;;;46.67;;
53411;SDS011;39307;52.870;13.660;2022-11-15T15:36:46;67.75;;;48.38;;
53411;SDS011;39307;52.870;13.660;2022-11-15T15:39:12;63.65;;;46.50;;
53411;SDS011;39307;52.870;13.660;2022-11-15T15:41:38;65.78;;;45.97;;
53411;SDS011;39307;52.870;13.660;2022-11-15T15:44:04;64.47;;;47.17;;
53411;SDS011;39307;52.870;13.660;2022-11-15T15:46:31;63.95;;;46.58;;
53411;SDS011;39307;52.870;13.660;2022-11-15T15:49:00;60.22;;;44.53;;
53411;SDS011;39307;52.870;13.660;2022-11-15T15:51:26;60.05;;;44.15;;
53411;SDS011;39307;52.870;13.660;2022-11-15T15:53:52;64.35;;;47.05;;
53411;SDS011;39307;52.870;13.660;2022-11-15T15:56:18;61.57;;;44.83;;
53411;SDS011;39307;52.870;13.660;2022-11-15T15:58:45;61.78;;;43.88;;
53411;SDS011;39307;52.870;13.660;2022-11-15T16:01:11;58.00;;;43.25;;
53411;SDS011;39307;52.870;13.660;2022-11-15T16:03:37;59.63;;;43.88;;
53411;SDS011;39307;52.870;13.660;2022-11-15T16:06:03;58.55;;;43.03;;
53411;SDS011;39307;52.870;13.660;2022-11-15T16:08:30;53.80;;;40.57;;
53411;SDS011;39307;52.870;13.660;2022-11-15T16:10:56;50.95;;;38.88;;
53411;SDS011;39307;52.870;13.660;2022-11-15T16:13:22;51.10;;;38.78;;
53411;SDS011;39307;52.870;13.660;2022-11-15T16:15:49;51.30;;;37.22;;
53411;SDS011;39307;52.870;13.660;2022-11-15T16:18:18;51.58;;;39.42;;
53411;SDS011;39307;52.870;13.660;2022-11-15T16:20:45;54.80;;;40.03;;